Time;durP1;ratioP1;P1;durP2;ratioP2;P2;SDS_P1;SDS_P2;PMS_P1;PMS_P2;Temp;Humidity;BMP_temperature;BMP_pressure;BME280_temperature;BME280_humidity;BME280_pressure;Samples;Min_cycle;Max_cycle;Signal;HPM_P1;HPM_P2
2021/06/26 00:00:14;;;;;;;6.72;1.42;;;20.40;61.40;;;;;;5074301;28;20024;-71
2021/06/26 00:02:40;;;;;;;3.80;1.20;;;20.40;61.50;;;;;;5074164;28;20043;-71
2021/06/26 00:05:07;;;;;;;5.97;1.63;;;20.40;61.50;;;;;;5074050;28;20028;-71
2021/06/26 00:07:33;;;;;;;6.38;1.88;;;20.40;61.50;;;;;;5074076;28;20055;-71
2021/06/26 00:09:59;;;;;;;4.93;1.40;;;20.40;61.50;;;;;;5072985;28;20041;-71
2021/06/26 00:12:25;;;;;;;2.50;1.17;;;20.30;61.80;;;;;;5073759;28;20029;-71
2021/06/26 00:14:51;;;;;;;15.98;1.65;;;20.30;61.70;;;;;;5073628;28;20058;-71
2021/06/26 00:17:17;;;;;;;2.25;1.40;;;20.30;61.90;;;;;;5072478;28;20436;-71
2021/06/26 00:19:43;;;;;;;2.13;1.30;;;20.30;62.20;;;;;;5081977;28;20039;-72
2021/06/26 00:22:08;;;;;;;4.13;1.17;;;20.30;62.10;;;;;;5094129;28;20030;-71
2021/06/26 00:24:34;;;;;;;2.90;1.40;;;20.30;62.10;;;;;;5080007;28;20389;-71
2021/06/26 00:27:00;;;;;;;2.70;1.15;;;20.30;62.20;;;;;;5079220;28;20447;-71
2021/06/26 00:29:26;;;;;;;2.20;1.38;;;20.30;62.00;;;;;;5072427;28;20039;-71
2021/06/26 00:31:52;;;;;;;3.92;1.40;;;20.20;62.30;;;;;;5072378;28;20471;-71
2021/06/26 00:34:17;;;;;;;2.63;1.52;;;20.20;62.30;;;;;;5077897;28;20406;-71
2021/06/26 00:36:43;;;;;;;4.22;1.30;;;20.20;62.30;;;;;;5073655;28;20024;-71
2021/06/26 00:39:09;;;;;;;6.05;1.27;;;20.20;62.40;;;;;;5072315;28;20024;-71
2021/06/26 00:41:34;;;;;;;1.90;1.20;;;20.20;62.60;;;;;;5073775;28;20036;-71
2021/06/26 00:44:01;;;;;;;5.78;1.83;;;20.20;62.60;;;;;;5073384;28;20036;-71
2021/06/26 00:46:27;;;;;;;4.60;1.67;;;20.10;63.10;;;;;;5073695;28;20025;-71
2021/06/26 00:48:53;;;;;;;3.90;1.55;;;20.10;63.30;;;;;;5078712;28;20084;-71
2021/06/26 00:51:19;;;;;;;3.03;1.42;;;20.10;63.20;;;;;;5093527;28;20379;-71
2021/06/26 00:53:45;;;;;;;2.28;1.67;;;20.10;63.50;;;;;;5087334;28;20028;-71
2021/06/26 00:56:13;;;;;;;4.38;1.70;;;20.00;63.70;;;;;;5073607;28;20028;-71
2021/06/26 00:58:39;;;;;;;3.63;1.73;;;20.00;63.80;;;;;;5072004;28;20024;-71
2021/06/26 01:01:05;;;;;;;2.10;1.67;;;20.00;64.00;;;;;;5071949;28;20077;-71
2021/06/26 01:03:31;;;;;;;2.15;1.65;;;20.00;64.00;;;;;;5082173;28;20102;-71
2021/06/26 01:05:56;;;;;;;2.97;1.70;;;20.00;64.00;;;;;;5093240;28;20039;-71
2021/06/26 01:08:25;;;;;;;2.95;1.40;;;20.00;63.90;;;;;;5093393;28;20404;-71
2021/06/26 01:10:51;;;;;;;2.75;1.80;;;20.00;63.80;;;;;;5093230;28;20020;-72
2021/06/26 01:13:16;;;;;;;3.83;1.90;;;20.00;64.20;;;;;;5093152;28;20024;-71
2021/06/26 01:15:42;;;;;;;3.20;1.65;;;20.00;64.30;;;;;;5093141;28;20103;-71
2021/06/26 01:18:09;;;;;;;6.05;1.92;;;20.00;64.20;;;;;;5093043;28;20036;-71
2021/06/26 01:20:35;;;;;;;2.70;1.98;;;20.00;64.20;;;;;;5091756;28;20028;-71
2021/06/26 01:23:04;;;;;;;6.40;1.83;;;20.00;64.40;;;;;;5092981;28;20381;-71
2021/06/26 01:25:30;;;;;;;2.67;1.55;;;20.00;64.40;;;;;;5092786;28;20024;-71
2021/06/26 01:27:58;;;;;;;8.68;2.30;;;20.00;64.50;;;;;;5071595;28;20086;-71
2021/06/26 01:30:42;;;;;;;3.45;2.08;;;20.00;64.60;;;;;;5071378;28;20029;-71
2021/06/26 01:33:08;;;;;;;5.03;2.10;;;19.90;64.50;;;;;;5082767;28;20019;-72
2021/06/26 01:35:34;;;;;;;8.27;1.85;;;20.00;64.60;;;;;;5092872;28;20478;-71
2021/06/26 01:38:02;;;;;;;6.05;1.90;;;20.00;64.80;;;;;;5091684;28;20024;-71
2021/06/26 01:40:28;;;;;;;4.10;1.98;;;19.90;64.70;;;;;;5092636;28;20103;-71
2021/06/26 01:42:56;;;;;;;3.70;1.50;;;20.00;64.60;;;;;;5092640;28;20046;-72
2021/06/26 01:45:23;;;;;;;1.90;1.65;;;20.00;64.30;;;;;;5092530;28;20068;-71
2021/06/26 01:47:51;;;;;;;2.72;1.48;;;19.90;63.90;;;;;;5092403;28;20035;-71
2021/06/26 01:50:18;;;;;;;2.88;1.63;;;19.90;63.80;;;;;;5092215;28;20047;-71
2021/06/26 01:52:45;;;;;;;3.50;1.75;;;19.90;63.50;;;;;;5092367;28;20043;-71
2021/06/26 01:55:12;;;;;;;3.63;1.42;;;19.90;63.30;;;;;;5092276;28;20028;-71
2021/06/26 01:57:40;;;;;;;1.88;1.27;;;19.90;63.30;;;;;;5074826;28;20047;-71
2021/06/26 02:00:06;;;;;;;3.80;1.55;;;19.90;63.20;;;;;;5071902;28;20542;-71
2021/06/26 02:02:32;;;;;;;2.08;1.60;;;19.80;63.10;;;;;;5071779;28;20043;-71
2021/06/26 02:04:57;;;;;;;2.60;1.17;;;19.80;63.00;;;;;;5071906;28;20028;-71
2021/06/26 02:07:23;;;;;;;1.52;1.42;;;19.80;63.00;;;;;;5071669;28;20031;-71
2021/06/26 02:09:49;;;;;;;1.42;1.10;;;19.70;63.10;;;;;;5071820;28;20028;-71
2021/06/26 02:12:14;;;;;;;2.58;1.50;;;19.70;63.00;;;;;;5071793;28;20023;-71
2021/06/26 02:14:40;;;;;;;3.78;1.40;;;19.70;63.00;;;;;;5071657;28;20070;-71
2021/06/26 02:17:07;;;;;;;2.55;1.52;;;19.60;63.10;;;;;;5071575;28;20484;-71
2021/06/26 02:19:32;;;;;;;1.85;1.60;;;19.60;63.50;;;;;;5071440;28;20032;-71
2021/06/26 02:21:58;;;;;;;1.70;1.50;;;19.60;64.00;;;;;;5071508;28;20056;-71
2021/06/26 02:24:24;;;;;;;5.05;1.65;;;19.60;64.40;;;;;;5071516;28;20033;-71
2021/06/26 02:26:50;;;;;;;3.42;1.50;;;19.70;64.40;;;;;;5071753;28;20139;-71
2021/06/26 02:29:16;;;;;;;3.63;1.80;;;19.70;64.50;;;;;;5085807;28;20115;-71
2021/06/26 02:31:41;;;;;;;9.98;1.33;;;19.70;64.40;;;;;;5091813;28;20444;-72
2021/06/26 02:34:10;;;;;;;3.33;1.77;;;19.80;64.60;;;;;;5104345;28;20023;-71
2021/06/26 02:36:35;;;;;;;4.95;2.42;;;19.90;64.70;;;;;;5091622;28;20082;-71
2021/06/26 02:39:01;;;;;;;6.20;1.70;;;19.90;64.70;;;;;;5091573;28;20028;-71
2021/06/26 02:41:27;;;;;;;3.75;2.53;;;20.00;64.80;;;;;;5091487;28;20089;-71
2021/06/26 02:43:52;;;;;;;5.22;2.13;;;20.10;64.80;;;;;;5091456;28;20073;-71
2021/06/26 02:46:18;;;;;;;8.93;3.15;;;20.20;64.60;;;;;;5091152;28;20016;-72
2021/06/26 02:48:44;;;;;;;9.75;2.90;;;20.30;64.50;;;;;;5090010;28;20116;-71
2021/06/26 02:51:10;;;;;;;9.15;2.78;;;20.40;64.20;;;;;;5090612;28;20059;-71
2021/06/26 02:53:36;;;;;;;4.15;2.95;;;20.40;64.10;;;;;;5090030;28;20024;-71
2021/06/26 02:56:01;;;;;;;5.15;2.95;;;20.50;63.90;;;;;;5087961;28;20029;-71
2021/06/26 02:58:27;;;;;;;2.55;2.20;;;20.50;63.50;;;;;;5071042;28;20046;-71
2021/06/26 03:00:53;;;;;;;5.97;2.95;;;20.50;63.10;;;;;;5070909;28;20389;-71
2021/06/26 03:03:19;;;;;;;7.68;2.60;;;20.50;63.10;;;;;;5070857;28;20016;-71
2021/06/26 03:05:44;;;;;;;4.78;2.47;;;20.50;62.90;;;;;;5070888;28;20051;-71
2021/06/26 03:08:10;;;;;;;6.13;2.30;;;20.50;63.00;;;;;;5070960;28;20400;-72
2021/06/26 03:10:36;;;;;;;3.70;2.30;;;20.50;63.10;;;;;;5070965;28;20058;-71
2021/06/26 03:13:02;;;;;;;6.18;2.15;;;20.50;63.20;;;;;;5070870;28;20094;-71
2021/06/26 03:15:28;;;;;;;3.47;2.00;;;20.50;63.30;;;;;;5071091;28;20112;-71
2021/06/26 03:17:53;;;;;;;3.95;2.50;;;20.60;63.30;;;;;;5070895;28;20047;-71
2021/06/26 03:20:19;;;;;;;6.45;2.30;;;20.60;63.40;;;;;;5070874;28;20031;-71
2021/06/26 03:22:45;;;;;;;5.55;3.72;;;20.60;63.50;;;;;;5070849;28;20029;-71
2021/06/26 03:25:13;;;;;;;6.55;2.38;;;20.70;63.50;;;;;;5069676;28;20355;-71
2021/06/26 03:27:40;;;;;;;5.30;2.40;;;20.70;63.30;;;;;;5071022;28;20025;-72
2021/06/26 03:30:07;;;;;;;2.95;2.40;;;20.80;63.40;;;;;;5070792;28;20571;-71
2021/06/26 03:32:33;;;;;;;3.80;2.78;;;20.90;63.20;;;;;;5070526;28;20480;-71
2021/06/26 03:34:59;;;;;;;4.15;2.80;;;20.90;63.00;;;;;;5070554;28;20029;-71
2021/06/26 03:37:25;;;;;;;5.63;3.35;;;20.90;62.80;;;;;;5069316;28;20031;-71
2021/06/26 03:39:51;;;;;;;4.72;3.70;;;21.00;62.90;;;;;;5069359;28;20025;-72
2021/06/26 03:42:17;;;;;;;5.75;3.95;;;21.00;62.80;;;;;;5070696;28;20486;-71
2021/06/26 03:44:42;;;;;;;7.63;5.75;;;21.00;62.60;;;;;;5076095;28;20024;-71
2021/06/26 03:47:08;;;;;;;7.88;5.93;;;21.00;62.60;;;;;;5090742;28;20184;-71
2021/06/26 03:49:37;;;;;;;6.80;5.07;;;20.90;62.60;;;;;;5090621;28;20040;-72
2021/06/26 03:52:04;;;;;;;13.93;6.47;;;20.90;62.50;;;;;;5090801;28;20023;-72
2021/06/26 03:54:30;;;;;;;8.50;5.43;;;20.90;62.40;;;;;;5089195;28;20048;-72
2021/06/26 03:56:56;;;;;;;6.35;5.03;;;20.80;62.50;;;;;;5080579;28;20125;-71
2021/06/26 03:59:22;;;;;;;7.20;5.63;;;20.80;62.80;;;;;;5070373;28;20086;-72
2021/06/26 04:01:47;;;;;;;5.70;4.65;;;20.80;63.00;;;;;;5070487;28;20028;-71
2021/06/26 04:04:13;;;;;;;6.85;4.93;;;20.80;63.10;;;;;;5072071;28;20107;-71
2021/06/26 04:06:39;;;;;;;7.20;5.57;;;20.90;63.30;;;;;;5073968;28;20028;-71
2021/06/26 04:09:05;;;;;;;10.57;6.40;;;20.90;63.30;;;;;;5072779;28;20021;-71
2021/06/26 04:11:31;;;;;;;9.00;5.90;;;20.90;63.40;;;;;;5074015;28;20629;-71
2021/06/26 04:13:57;;;;;;;12.57;5.32;;;20.90;63.50;;;;;;5073989;28;20107;-72
2021/06/26 04:16:23;;;;;;;7.30;5.00;;;21.00;63.60;;;;;;5074010;28;20078;-71
2021/06/26 04:18:49;;;;;;;8.38;4.53;;;21.00;63.60;;;;;;5073895;28;20031;-71
2021/06/26 04:21:15;;;;;;;8.80;4.60;;;21.00;63.50;;;;;;5073860;28;20029;-71
2021/06/26 04:23:40;;;;;;;4.50;3.83;;;21.00;63.40;;;;;;5072463;28;20056;-72
2021/06/26 04:26:06;;;;;;;6.93;4.78;;;21.00;63.40;;;;;;5073906;28;20401;-71
2021/06/26 04:28:32;;;;;;;9.30;3.92;;;21.00;63.50;;;;;;5073793;28;20385;-71
2021/06/26 04:30:58;;;;;;;5.40;3.55;;;21.00;63.60;;;;;;5074084;28;20021;-71
2021/06/26 04:33:27;;;;;;;4.45;3.13;;;21.00;63.50;;;;;;5073487;28;20033;-72
2021/06/26 04:35:53;;;;;;;10.70;4.53;;;21.00;63.50;;;;;;5074408;28;20078;-72
2021/06/26 04:38:22;;;;;;;7.32;5.40;;;21.00;63.40;;;;;;5094003;28;20119;-71
2021/06/26 04:40:52;;;;;;;8.43;6.30;;;21.10;63.40;;;;;;5094675;28;20112;-71
2021/06/26 04:43:19;;;;;;;10.82;6.43;;;21.10;63.40;;;;;;5093197;28;20103;-72
2021/06/26 04:45:46;;;;;;;7.70;5.10;;;21.10;63.30;;;;;;5094223;28;20020;-71
2021/06/26 04:48:15;;;;;;;10.70;5.30;;;21.10;63.20;;;;;;5094320;28;20473;-71
2021/06/26 04:50:41;;;;;;;11.65;5.45;;;21.20;63.20;;;;;;5094070;28;20531;-71
2021/06/26 04:53:07;;;;;;;7.65;5.10;;;21.20;63.20;;;;;;5094354;28;20020;-72
2021/06/26 04:55:32;;;;;;;8.23;5.97;;;21.20;63.20;;;;;;5094480;28;20076;-71
2021/06/26 04:57:58;;;;;;;10.25;5.32;;;21.20;63.20;;;;;;5076086;28;20111;-72
2021/06/26 05:00:25;;;;;;;8.32;5.18;;;21.20;63.20;;;;;;5074025;28;20024;-71
2021/06/26 05:02:50;;;;;;;8.23;6.68;;;21.20;63.30;;;;;;5073964;28;20483;-72
2021/06/26 05:05:16;;;;;;;10.60;8.63;;;21.20;63.40;;;;;;5073858;28;20055;-71
2021/06/26 05:07:42;;;;;;;13.18;9.13;;;21.20;63.40;;;;;;5073737;28;20035;-72
2021/06/26 05:10:08;;;;;;;11.57;9.10;;;21.20;63.20;;;;;;5073770;28;20490;-72
2021/06/26 05:12:34;;;;;;;11.00;9.10;;;21.20;63.20;;;;;;5073771;28;20103;-72
2021/06/26 05:15:00;;;;;;;11.68;8.45;;;21.20;63.20;;;;;;5073076;28;20044;-72
2021/06/26 05:17:26;;;;;;;15.68;9.02;;;21.30;63.30;;;;;;5073640;28;20034;-71
2021/06/26 05:19:51;;;;;;;12.57;8.77;;;21.30;64.10;;;;;;5072117;28;20025;-72
2021/06/26 05:22:17;;;;;;;17.10;9.32;;;21.30;63.30;;;;;;5073503;28;20432;-72
2021/06/26 05:24:43;;;;;;;12.70;8.38;;;21.40;63.10;;;;;;5073403;28;20493;-72
2021/06/26 05:27:09;;;;;;;14.90;9.00;;;21.40;62.90;;;;;;5082800;28;20129;-72
2021/06/26 05:29:40;;;;;;;11.48;8.63;;;21.50;62.80;;;;;;5092311;28;20032;-71
2021/06/26 05:32:06;;;;;;;13.00;7.53;;;21.50;63.50;;;;;;5092181;28;20477;-71
2021/06/26 05:34:32;;;;;;;10.93;7.57;;;21.70;62.90;;;;;;5073372;28;20111;-72
2021/06/26 05:36:58;;;;;;;10.82;7.72;;;21.80;62.60;;;;;;5073209;28;20414;-72
2021/06/26 05:39:24;;;;;;;7.90;6.40;;;21.90;62.50;;;;;;5075684;28;20473;-72
2021/06/26 05:41:49;;;;;;;6.70;5.55;;;22.00;62.20;;;;;;5093318;28;20470;-72
2021/06/26 05:44:15;;;;;;;7.57;6.05;;;22.20;62.10;;;;;;5093390;28;20020;-72
2021/06/26 05:46:41;;;;;;;8.57;5.95;;;22.30;61.60;;;;;;5093188;28;20052;-72
2021/06/26 05:49:07;;;;;;;8.98;6.63;;;22.40;61.10;;;;;;5091846;28;20020;-71
2021/06/26 05:51:33;;;;;;;8.88;6.13;;;22.50;60.60;;;;;;5093282;28;20036;-72
2021/06/26 05:53:58;;;;;;;8.15;6.88;;;22.70;60.40;;;;;;5093161;28;20028;-72
2021/06/26 05:56:24;;;;;;;10.40;6.05;;;22.70;59.90;;;;;;5093070;28;20437;-72
2021/06/26 05:58:50;;;;;;;8.13;6.13;;;22.80;60.40;;;;;;5091730;28;20078;-72
2021/06/26 06:01:16;;;;;;;8.85;5.72;;;22.90;59.50;;;;;;5093074;28;20493;-72
2021/06/26 06:03:41;;;;;;;7.80;6.32;;;23.00;59.10;;;;;;5093083;28;20035;-71
2021/06/26 06:06:07;;;;;;;7.30;5.47;;;23.10;59.00;;;;;;5079525;28;20028;-72
2021/06/26 06:08:33;;;;;;;7.50;5.55;;;23.20;58.50;;;;;;5072679;28;20016;-71
2021/06/26 06:11:01;;;;;;;6.75;5.43;;;23.30;58.20;;;;;;5072675;28;20382;-72
2021/06/26 06:13:27;;;;;;;7.80;4.93;;;23.40;58.10;;;;;;5072577;28;20025;-72
2021/06/26 06:15:53;;;;;;;7.25;5.20;;;23.50;57.80;;;;;;5071185;28;20500;-72
2021/06/26 06:18:20;;;;;;;6.63;4.65;;;23.60;57.40;;;;;;5072457;28;20356;-72
2021/06/26 06:20:47;;;;;;;9.50;4.95;;;23.70;56.90;;;;;;5071038;28;20385;-72
2021/06/26 06:23:13;;;;;;;8.70;4.65;;;23.90;56.70;;;;;;5072388;28;20024;-72
2021/06/26 06:25:39;;;;;;;5.32;4.07;;;24.00;55.70;;;;;;5072045;28;20066;-72
2021/06/26 06:28:05;;;;;;;12.50;4.45;;;24.10;55.30;;;;;;5070508;28;20484;-72
2021/06/26 06:30:33;;;;;;;6.65;4.25;;;24.20;55.00;;;;;;5072391;28;20478;-72
2021/06/26 06:33:00;;;;;;;7.80;3.80;;;24.30;54.80;;;;;;5072092;28;20021;-72
2021/06/26 06:35:26;;;;;;;5.20;3.75;;;24.40;54.40;;;;;;5072387;28;20382;-72
2021/06/26 06:37:52;;;;;;;4.22;3.80;;;24.40;54.10;;;;;;5072192;28;20029;-72
2021/06/26 06:40:19;;;;;;;4.40;3.70;;;24.50;53.70;;;;;;5076259;28;20016;-72
2021/06/26 06:42:44;;;;;;;5.00;3.88;;;24.50;53.80;;;;;;5090991;28;20024;-72
2021/06/26 06:45:11;;;;;;;7.88;3.80;;;24.50;53.40;;;;;;5092230;28;20362;-72
2021/06/26 06:47:38;;;;;;;6.15;3.97;;;24.50;53.20;;;;;;5092077;28;20028;-72
2021/06/26 06:50:06;;;;;;;4.10;3.70;;;24.50;52.90;;;;;;5092075;28;20040;-72
2021/06/26 06:52:32;;;;;;;10.32;4.28;;;24.40;52.90;;;;;;5092151;28;20027;-72
2021/06/26 06:54:58;;;;;;;4.57;3.80;;;24.40;53.00;;;;;;5092117;28;20385;-72
2021/06/26 06:57:25;;;;;;;5.15;3.67;;;24.40;53.10;;;;;;5091787;28;20036;-72
2021/06/26 06:59:52;;;;;;;9.63;4.57;;;24.30;53.30;;;;;;5091986;28;20024;-72
2021/06/26 07:02:19;;;;;;;4.28;3.42;;;24.40;52.80;;;;;;5092134;28;20073;-72
2021/06/26 07:04:45;;;;;;;7.30;4.30;;;24.40;52.70;;;;;;5088485;28;20032;-72
2021/06/26 07:07:11;;;;;;;6.63;3.60;;;24.50;52.70;;;;;;5071938;28;20394;-72
2021/06/26 07:09:37;;;;;;;6.13;3.17;;;24.60;52.70;;;;;;5071991;28;20029;-72
2021/06/26 07:12:03;;;;;;;5.60;3.78;;;24.70;52.30;;;;;;5071742;28;20048;-72
2021/06/26 07:14:29;;;;;;;7.25;3.63;;;24.80;51.40;;;;;;5071900;28;20021;-72
2021/06/26 07:16:54;;;;;;;5.25;3.20;;;24.80;50.50;;;;;;5071963;28;20385;-72
2021/06/26 07:19:20;;;;;;;3.20;2.80;;;24.90;50.60;;;;;;5071890;28;20443;-72
2021/06/26 07:21:46;;;;;;;5.07;2.88;;;24.90;50.20;;;;;;5071593;28;20035;-72
2021/06/26 07:24:12;;;;;;;8.10;3.35;;;24.90;50.50;;;;;;5071481;28;20024;-72
2021/06/26 07:26:38;;;;;;;6.53;3.08;;;24.90;50.10;;;;;;5070119;28;20067;-72
2021/06/26 07:29:05;;;;;;;3.45;3.15;;;24.90;49.90;;;;;;5070433;28;20063;-72
2021/06/26 07:31:32;;;;;;;4.38;2.97;;;24.90;49.70;;;;;;5071890;28;20103;-72
2021/06/26 07:33:58;;;;;;;3.42;2.97;;;24.90;49.50;;;;;;5071261;28;20017;-72
2021/06/26 07:36:24;;;;;;;3.55;2.58;;;24.90;49.50;;;;;;5086133;28;20016;-72
2021/06/26 07:38:51;;;;;;;7.78;3.28;;;25.00;50.00;;;;;;5092448;28;20035;-71
2021/06/26 07:41:17;;;;;;;2.60;2.28;;;25.00;49.70;;;;;;5091432;28;20103;-72
2021/06/26 07:43:43;;;;;;;7.43;2.65;;;25.10;49.60;;;;;;5080511;28;20213;-71
2021/06/26 07:46:09;;;;;;;4.40;2.90;;;25.20;49.00;;;;;;5090136;28;20142;-72
2021/06/26 07:48:35;;;;;;;5.32;2.53;;;25.20;49.10;;;;;;5093638;28;20020;-72
2021/06/26 07:51:01;;;;;;;3.00;2.55;;;25.30;49.00;;;;;;5093773;28;20048;-72
2021/06/26 07:53:27;;;;;;;2.90;2.60;;;25.30;48.60;;;;;;5080055;28;20139;-71
2021/06/26 07:55:53;;;;;;;2.90;2.60;;;25.40;48.00;;;;;;5093836;28;20020;-72
2021/06/26 07:58:27;;;;;;;5.10;2.20;;;25.40;47.90;;;;;;5093005;28;20016;-72
2021/06/26 08:00:55;;;;;;;2.90;2.50;;;25.40;47.90;;;;;;5094161;28;20481;-72
2021/06/26 08:03:21;;;;;;;2.85;2.50;;;25.50;47.90;;;;;;5093850;28;20069;-72
2021/06/26 08:05:48;;;;;;;3.05;2.50;;;25.50;47.60;;;;;;5092109;28;20020;-72
2021/06/26 08:08:14;;;;;;;3.35;2.13;;;25.50;47.30;;;;;;5093843;28;20077;-72
2021/06/26 08:10:40;;;;;;;3.97;2.22;;;25.50;46.80;;;;;;5092875;28;20024;-72
2021/06/26 08:13:07;;;;;;;2.25;2.00;;;25.50;46.70;;;;;;5092783;28;20362;-72
2021/06/26 08:15:37;;;;;;;2.45;2.25;;;25.50;47.20;;;;;;5088019;28;20028;-72
2021/06/26 08:18:04;;;;;;;2.30;2.10;;;25.50;47.30;;;;;;5082647;28;20359;-72
2021/06/26 08:20:30;;;;;;;2.40;2.20;;;25.50;47.10;;;;;;5086060;28;20024;-71
2021/06/26 08:22:57;;;;;;;2.65;2.30;;;25.50;47.00;;;;;;5092755;28;20425;-72
2021/06/26 08:25:23;;;;;;;4.03;2.45;;;25.50;47.00;;;;;;5093840;28;20056;-72
2021/06/26 08:27:49;;;;;;;4.93;2.58;;;25.40;46.90;;;;;;5092027;28;20063;-72
2021/06/26 08:30:15;;;;;;;2.33;2.13;;;25.40;46.70;;;;;;5092113;28;20031;-72
2021/06/26 08:32:42;;;;;;;3.05;1.92;;;25.40;47.00;;;;;;5092141;28;20111;-72
2021/06/26 08:35:08;;;;;;;3.38;2.08;;;25.40;46.90;;;;;;5092773;28;20020;-71
2021/06/26 08:37:35;;;;;;;2.35;2.15;;;25.40;46.90;;;;;;5093140;28;20035;-73
2021/06/26 08:40:01;;;;;;;2.80;1.83;;;25.40;46.90;;;;;;5093563;28;20020;-72
2021/06/26 08:42:27;;;;;;;1.77;1.60;;;25.40;46.60;;;;;;5093509;28;20602;-72
2021/06/26 08:45:01;;;;;;;1.48;1.38;;;25.40;47.30;;;;;;5093480;28;20094;-72
2021/06/26 08:47:27;;;;;;;2.08;1.60;;;25.40;46.40;;;;;;5091087;28;20473;-72
2021/06/26 08:49:54;;;;;;;1.27;1.17;;;25.40;46.10;;;;;;5092271;28;20043;-72
2021/06/26 08:52:20;;;;;;;1.92;1.50;;;25.40;46.60;;;;;;5093330;28;20043;-72
2021/06/26 08:54:50;;;;;;;1.88;1.73;;;25.50;46.20;;;;;;5086350;28;20473;-72
2021/06/26 08:57:29;;;;;;;1.35;1.25;;;25.50;46.10;;;;;;5092999;28;20382;-72
2021/06/26 08:59:55;;;;;;;2.10;1.67;;;25.60;46.10;;;;;;5090694;28;20043;-72
2021/06/26 09:02:22;;;;;;;1.90;1.50;;;25.60;45.50;;;;;;5094162;28;20020;-72
2021/06/26 09:04:49;;;;;;;2.78;1.90;;;25.70;45.90;;;;;;5090773;28;20025;-72
2021/06/26 09:07:14;;;;;;;2.10;1.23;;;25.70;45.10;;;;;;5091490;28;20165;-72
2021/06/26 09:09:41;;;;;;;1.52;1.40;;;25.80;45.60;;;;;;5093941;28;20103;-71
2021/06/26 09:12:12;;;;;;;1.65;1.40;;;25.80;44.80;;;;;;5093887;28;20102;-72
2021/06/26 09:14:39;;;;;;;5.10;1.98;;;25.80;44.50;;;;;;5093670;28;20490;-72
2021/06/26 09:17:06;;;;;;;1.50;1.40;;;25.80;44.60;;;;;;5093711;28;20028;-72
2021/06/26 09:19:34;;;;;;;1.73;1.30;;;25.70;44.40;;;;;;5080690;28;20035;-72
2021/06/26 09:22:07;;;;;;;2.70;1.50;;;25.70;44.20;;;;;;5071427;28;20552;-73
2021/06/26 09:24:43;;;;;;;2.05;1.60;;;25.80;43.70;;;;;;5093098;28;20486;-73
2021/06/26 09:27:14;;;;;;;2.92;1.77;;;25.80;43.60;;;;;;5093358;28;20012;-73
2021/06/26 09:30:06;;;;;;;2.08;1.48;;;25.80;43.70;;;;;;5093579;28;20422;-73
2021/06/26 09:32:32;;;;;;;1.30;1.20;;;25.80;44.50;;;;;;5089468;28;20123;-73
2021/06/26 09:34:58;;;;;;;1.73;1.50;;;25.90;43.70;;;;;;5089038;28;20104;-73
2021/06/26 09:37:33;;;;;;;2.60;1.38;;;25.90;43.90;;;;;;5088220;28;20382;-73
2021/06/26 09:40:01;;;;;;;1.65;1.23;;;26.00;43.70;;;;;;5093419;28;20448;-73
2021/06/26 09:42:32;;;;;;;9.70;1.73;;;26.00;43.10;;;;;;5091942;28;20070;-72
2021/06/26 09:44:59;;;;;;;1.50;1.25;;;26.00;42.90;;;;;;5093217;28;20032;-73
2021/06/26 09:47:28;;;;;;;1.35;1.08;;;26.00;42.90;;;;;;5090262;28;20026;-73
2021/06/26 09:49:54;;;;;;;2.25;1.38;;;26.00;43.40;;;;;;5082878;28;20059;-73
2021/06/26 09:52:20;;;;;;;10.02;1.85;;;26.10;43.60;;;;;;5090193;28;20477;-73
2021/06/26 09:54:45;;;;;;;1.30;1.20;;;26.10;43.30;;;;;;5075569;28;20025;-72
2021/06/26 09:57:11;;;;;;;1.40;1.30;;;26.10;42.90;;;;;;5071762;28;20417;-73
2021/06/26 09:59:38;;;;;;;2.40;1.30;;;26.20;42.90;;;;;;5071656;28;20054;-72
2021/06/26 10:02:03;;;;;;;1.83;1.30;;;26.20;42.80;;;;;;5072454;28;20021;-73
2021/06/26 10:04:29;;;;;;;2.17;1.30;;;26.20;43.00;;;;;;5090431;28;20031;-72
2021/06/26 10:06:58;;;;;;;2.05;1.38;;;26.30;42.70;;;;;;5095855;28;20024;-72
2021/06/26 10:09:24;;;;;;;1.20;1.02;;;26.30;42.50;;;;;;5090326;28;20480;-72
2021/06/26 10:11:51;;;;;;;1.75;1.15;;;26.30;42.40;;;;;;5086167;28;20077;-73
2021/06/26 10:14:18;;;;;;;2.13;1.52;;;26.50;43.20;;;;;;5092775;28;20386;-73
2021/06/26 10:16:44;;;;;;;1.83;1.20;;;26.50;42.90;;;;;;5081039;28;20021;-73
2021/06/26 10:19:12;;;;;;;2.80;1.30;;;26.60;41.80;;;;;;5072381;28;20111;-72
2021/06/26 10:21:38;;;;;;;1.65;1.40;;;26.70;42.10;;;;;;5072492;28;20032;-73
2021/06/26 10:24:10;;;;;;;1.60;1.10;;;26.80;41.80;;;;;;5075455;28;20058;-73
2021/06/26 10:26:38;;;;;;;1.13;1.02;;;26.90;41.80;;;;;;5092627;28;20035;-73
2021/06/26 10:29:04;;;;;;;1.83;1.00;;;27.10;41.90;;;;;;5087051;28;20087;-71
2021/06/26 10:31:41;;;;;;;2.80;1.42;;;27.20;41.00;;;;;;5084565;28;20020;-71
2021/06/26 10:34:15;;;;;;;1.20;1.00;;;27.20;41.00;;;;;;5071298;28;20031;-71
2021/06/26 10:36:45;;;;;;;1.50;0.90;;;27.20;40.00;;;;;;5071193;28;20031;-71
2021/06/26 10:39:29;;;;;;;1.65;1.50;;;27.20;40.50;;;;;;5072193;28;20028;-71
2021/06/26 10:42:05;;;;;;;3.30;1.17;;;27.20;40.30;;;;;;5072264;28;20020;-71
2021/06/26 10:44:53;;;;;;;1.30;1.20;;;27.30;40.10;;;;;;5074127;28;20028;-71
2021/06/26 10:47:37;;;;;;;1.83;1.20;;;27.40;40.80;;;;;;5078130;28;20070;-71
2021/06/26 10:50:19;;;;;;;1.10;1.00;;;27.50;40.20;;;;;;5084859;28;20032;-70
2021/06/26 10:52:56;;;;;;;1.63;1.10;;;27.60;40.60;;;;;;5073893;28;20025;-72
2021/06/26 10:55:32;;;;;;;1.80;1.20;;;27.70;40.20;;;;;;5072312;28;20024;-71
2021/06/26 10:58:00;;;;;;;2.38;1.17;;;27.80;40.30;;;;;;5090200;28;20024;-71
2021/06/26 11:00:36;;;;;;;3.08;2.17;;;28.00;40.70;;;;;;5074678;28;20032;-71
2021/06/26 11:03:05;;;;;;;2.47;1.90;;;28.10;40.40;;;;;;5095145;28;20035;-71
2021/06/26 11:05:34;;;;;;;1.88;1.65;;;28.30;40.10;;;;;;5077356;28;20437;-71
2021/06/26 11:08:00;;;;;;;3.08;2.10;;;28.50;38.80;;;;;;5071085;28;20016;-71
2021/06/26 11:10:27;;;;;;;2.40;1.60;;;28.60;38.60;;;;;;5085292;28;20028;-72
2021/06/26 11:12:53;;;;;;;2.58;2.00;;;28.70;38.90;;;;;;5092564;28;20020;-72
2021/06/26 11:15:29;;;;;;;3.58;2.58;;;28.80;38.50;;;;;;5090947;28;20478;-71
2021/06/26 11:17:56;;;;;;;1.67;1.42;;;28.90;38.20;;;;;;5096501;28;20043;-72
2021/06/26 11:20:22;;;;;;;2.13;1.85;;;29.00;38.70;;;;;;5093071;28;20097;-71
2021/06/26 11:22:54;;;;;;;2.08;1.83;;;29.20;38.10;;;;;;5095520;28;20027;-71
2021/06/26 11:25:21;;;;;;;2.28;1.73;;;29.40;37.50;;;;;;5095130;28;20077;-71
2021/06/26 11:27:46;;;;;;;2.72;1.63;;;29.60;37.10;;;;;;5094894;28;20040;-71
2021/06/26 11:30:14;;;;;;;1.77;1.50;;;29.70;36.40;;;;;;5087593;28;20024;-72
2021/06/26 11:32:40;;;;;;;2.08;1.20;;;29.80;36.30;;;;;;5094748;28;20012;-71
2021/06/26 11:35:17;;;;;;;1.15;1.05;;;30.00;36.70;;;;;;5093516;28;20059;-71
2021/06/26 11:37:48;;;;;;;4.00;1.42;;;30.10;35.60;;;;;;5094728;28;20024;-71
2021/06/26 11:40:14;;;;;;;3.53;2.53;;;30.20;35.20;;;;;;5095175;28;20028;-71
2021/06/26 11:42:51;;;;;;;2.47;1.98;;;30.30;35.80;;;;;;5094807;28;20030;-71
2021/06/26 11:45:23;;;;;;;2.67;2.03;;;30.30;35.20;;;;;;5095631;28;20027;-72
2021/06/26 11:47:59;;;;;;;1.88;1.60;;;30.30;35.10;;;;;;5095637;28;20358;-71
2021/06/26 11:50:25;;;;;;;1.50;1.30;;;30.40;35.20;;;;;;5095850;28;20093;-71
2021/06/26 11:52:51;;;;;;;1.33;1.23;;;30.40;35.00;;;;;;5095614;28;20387;-71
2021/06/26 11:55:16;;;;;;;1.98;1.55;;;30.40;35.10;;;;;;5096526;28;20039;-72
2021/06/26 11:57:42;;;;;;;2.70;1.60;;;30.30;35.20;;;;;;5096488;28;20084;-71
2021/06/26 12:00:08;;;;;;;1.98;1.67;;;30.30;35.60;;;;;;5096427;28;20384;-71
2021/06/26 12:02:40;;;;;;;4.65;1.90;;;30.30;35.00;;;;;;5095113;28;20135;-71
2021/06/26 12:05:06;;;;;;;2.05;1.40;;;30.20;35.00;;;;;;5092917;28;20535;-71
2021/06/26 12:07:33;;;;;;;3.05;2.05;;;30.20;34.50;;;;;;5094686;28;20113;-72
2021/06/26 12:10:01;;;;;;;2.75;2.00;;;30.10;34.60;;;;;;5096223;28;20032;-72
2021/06/26 12:12:32;;;;;;;1.98;1.40;;;30.10;34.60;;;;;;5083388;28;20484;-71
2021/06/26 12:14:58;;;;;;;2.50;1.95;;;30.00;34.70;;;;;;5084122;28;20474;-71
2021/06/26 12:17:24;;;;;;;1.40;1.30;;;30.00;34.90;;;;;;5077040;28;20074;-68
2021/06/26 12:19:58;;;;;;;3.15;2.40;;;30.00;34.20;;;;;;5091995;28;20062;-75
2021/06/26 12:22:24;;;;;;;2.10;1.88;;;30.00;35.00;;;;;;5085034;28;20029;-73
2021/06/26 12:24:49;;;;;;;1.70;1.60;;;30.00;35.50;;;;;;5076495;28;20127;-72
2021/06/26 12:27:23;;;;;;;3.03;2.15;;;30.00;34.80;;;;;;5074240;28;20028;-72
2021/06/26 12:30:00;;;;;;;2.90;1.20;;;30.00;34.10;;;;;;5085490;28;20028;-72
2021/06/26 12:32:38;;;;;;;4.90;1.70;;;30.10;34.30;;;;;;5094161;28;20028;-72
2021/06/26 12:35:06;;;;;;;2.47;1.60;;;30.10;34.80;;;;;;5088849;28;20016;-72
2021/06/26 12:37:40;;;;;;;2.22;1.98;;;30.10;34.60;;;;;;5074511;28;20039;-73
2021/06/26 12:40:17;;;;;;;2.10;1.67;;;30.10;34.80;;;;;;5074475;28;20028;-72
2021/06/26 12:43:06;;;;;;;1.92;1.73;;;30.10;34.00;;;;;;5074402;28;20028;-72
2021/06/26 12:45:40;;;;;;;2.08;1.50;;;30.20;34.40;;;;;;5076725;28;20119;-72